Time;durP1;ratioP1;P1;durP2;ratioP2;P2;SDS_P1;SDS_P2;PMS_P1;PMS_P2;Temp;Humidity;BMP_temperature;BMP_pressure;BME280_temperature;BME280_humidity;BME280_pressure;Samples;Min_cycle;Max_cycle;Signal;HPM_P1;HPM_P2
2023/01/21 00:02:22;;;;;;;;;4.00;4.00;;;;;20.18;59.08;101398.01;110351;1251;19227;-34
2023/01/21 00:04:50;;;;;;;;;5.00;4.00;;;;;20.17;59.04;101395.76;110322;1251;20172;-33
2023/01/21 00:07:17;;;;;;;;;4.00;2.00;;;;;20.18;58.84;101394.73;110255;1265;22082;-33
2023/01/21 00:09:44;;;;;;;;;4.00;4.00;;;;;20.18;59.20;101384.56;110312;1249;21413;-34
2023/01/21 00:12:12;;;;;;;;;5.00;4.00;;;;;20.19;58.86;101384.54;110282;1265;19748;-33
2023/01/21 00:14:39;;;;;;;;;2.00;2.00;;;;;20.18;59.08;101378.44;110235;1265;20962;-34
2023/01/21 00:17:06;;;;;;;;;2.00;2.00;;;;;20.17;59.04;101374.70;110223;1266;17908;-34
2023/01/21 00:19:33;;;;;;;;;5.00;4.00;;;;;20.17;58.81;101368.20;110208;1265;18556;-33
2023/01/21 00:22:01;;;;;;;;;4.00;3.00;;;;;20.17;58.99;101374.73;110245;1266;18216;-33
2023/01/21 00:24:28;;;;;;;;;4.00;4.00;;;;;20.16;58.83;101373.86;110307;1265;17897;-34
2023/01/21 00:26:55;;;;;;;;;4.00;4.00;;;;;20.16;58.83;101372.81;110334;1251;21265;-34
2023/01/21 00:29:23;;;;;;;;;2.00;2.00;;;;;20.16;58.75;101371.52;110351;1250;21199;-34
2023/01/21 00:31:50;;;;;;;;;4.00;4.00;;;;;20.17;58.73;101371.83;110383;1265;19239;-34
2023/01/21 00:34:17;;;;;;;;;4.00;4.00;;;;;20.17;58.61;101376.88;110282;1265;18499;-33
2023/01/21 00:36:45;;;;;;;;;4.00;4.00;;;;;20.16;58.70;101382.66;110194;1265;19013;-34
2023/01/21 00:39:12;;;;;;;;;4.00;2.33;;;;;20.15;58.70;101383.84;110231;1265;17904;-33
2023/01/21 00:41:39;;;;;;;;;5.00;2.00;;;;;20.14;58.72;101384.45;110339;1265;18553;-33
2023/01/21 00:44:07;;;;;;;;;3.00;3.00;;;;;20.15;58.66;101382.21;110291;1251;21851;-32
2023/01/21 00:46:34;;;;;;;;;4.00;4.00;;;;;20.14;58.75;101382.80;110333;1257;19567;-33
2023/01/21 00:49:02;;;;;;;;;4.00;4.00;;;;;20.13;58.72;101387.85;110311;1265;21717;-33
2023/01/21 00:51:29;;;;;;;;;4.50;4.00;;;;;20.12;58.49;101384.83;110362;1260;18180;-33
2023/01/21 00:53:56;;;;;;;;;2.00;2.00;;;;;20.14;58.55;101386.84;110291;1265;18118;-33
2023/01/21 00:56:24;;;;;;;;;3.00;2.00;;;;;20.13;58.63;101395.79;110366;1250;20267;-34
2023/01/21 00:58:51;;;;;;;;;4.50;3.50;;;;;20.13;58.46;101391.26;110365;1251;18185;-33
2023/01/21 01:01:18;;;;;;;;;2.50;2.00;;;;;20.13;58.73;101388.00;110379;1265;19354;-33
2023/01/21 01:03:46;;;;;;;;;4.00;4.00;;;;;20.12;58.47;101382.81;110371;1265;18490;-33
2023/01/21 01:06:13;;;;;;;;;3.00;3.00;;;;;20.13;58.64;101391.09;110366;1257;18345;-33
2023/01/21 01:08:40;;;;;;;;;2.00;2.00;;;;;20.12;58.56;101393.37;110358;1265;22307;-33
2023/01/21 01:11:08;;;;;;;;;4.00;4.00;;;;;20.11;58.44;101395.64;110358;1251;21516;-34
2023/01/21 01:13:35;;;;;;;;;4.67;2.00;;;;;20.12;58.49;101401.94;110348;1250;19612;-32
2023/01/21 01:16:02;;;;;;;;;2.00;2.00;;;;;20.13;58.42;101410.92;110364;1251;19922;-32
2023/01/21 01:18:31;;;;;;;;;2.67;2.67;;;;;20.13;58.36;101407.28;110372;1251;21221;-33
2023/01/21 01:20:58;;;;;;;;;4.00;2.00;;;;;20.13;58.22;101411.02;110356;1251;19646;-32
2023/01/21 01:23:25;;;;;;;;;2.00;2.00;;;;;20.11;58.28;101409.23;110367;1265;18052;-33
2023/01/21 01:25:53;;;;;;;;;4.00;4.00;;;;;20.11;58.26;101408.88;110306;1265;18575;-34
2023/01/21 01:28:20;;;;;;;;;5.00;5.00;;;;;20.11;58.41;101407.30;110226;1266;21513;-33
2023/01/21 01:30:47;;;;;;;;;5.50;4.00;;;;;20.11;58.44;101401.11;110380;1251;20366;-33
2023/01/21 01:33:15;;;;;;;;;4.00;4.00;;;;;20.11;58.25;101402.91;110360;1250;20015;-33
2023/01/21 01:35:45;;;;;;;;;4.00;2.00;;;;;20.11;58.34;101399.11;110370;1251;21804;-33
2023/01/21 01:38:13;;;;;;;;;2.00;2.00;;;;;20.10;58.33;101391.94;110344;1265;17865;-34
2023/01/21 01:40:40;;;;;;;;;5.00;4.00;;;;;20.10;58.33;101397.91;110344;1265;18512;-33
2023/01/21 01:43:07;;;;;;;;;4.50;3.00;;;;;20.11;58.16;101397.81;110371;1265;19495;-33
2023/01/21 01:45:35;;;;;;;;;5.00;4.00;;;;;20.11;58.24;101400.55;110323;1251;19406;-33
2023/01/21 01:48:05;;;;;;;;;4.00;2.00;;;;;20.11;58.15;101400.98;110379;1265;19202;-33
2023/01/21 01:50:32;;;;;;;;;5.00;4.00;;;;;20.11;57.99;101404.95;110346;1251;19633;-34
2023/01/21 01:52:59;;;;;;;;;2.00;2.00;;;;;20.10;58.25;101404.49;110366;1251;19271;-33
2023/01/21 01:55:27;;;;;;;;;2.00;2.00;;;;;20.11;58.28;101405.14;110357;1265;18591;-33
2023/01/21 01:57:54;;;;;;;;;5.00;4.00;;;;;20.10;58.20;101396.33;110350;1265;18389;-33
2023/01/21 02:00:21;;;;;;;;;1.00;1.00;;;;;20.10;58.20;101409.96;110372;1266;19393;-32
2023/01/21 02:05:30;;;;;;;;;2.00;2.00;;;;;20.09;58.10;101404.59;110368;1251;19922;-32
2023/01/21 02:07:57;;;;;;;;;2.00;2.00;;;;;20.09;57.97;101393.90;110350;1265;19195;-34
2023/01/21 02:10:24;;;;;;;;;4.00;2.00;;;;;20.08;58.10;101397.44;110359;1250;20166;-33
2023/01/21 02:12:52;;;;;;;;;2.00;2.00;;;;;20.08;58.11;101396.65;110272;1265;18876;-33
2023/01/21 02:15:19;;;;;;;;;3.00;3.00;;;;;20.08;58.09;101396.34;110303;1265;19290;-34
2023/01/21 02:17:46;;;;;;;;;4.00;2.50;;;;;20.07;58.05;101401.85;110357;1265;18573;-33
2023/01/21 02:20:14;;;;;;;;;2.00;2.00;;;;;20.07;57.88;101406.07;110382;1260;20919;-33
2023/01/21 02:22:41;;;;;;;;;2.00;2.00;;;;;20.08;58.05;101403.45;110352;1265;21544;-33
2023/01/21 02:25:08;;;;;;;;;2.00;2.00;;;;;20.07;57.86;101402.60;110376;1250;19960;-33
2023/01/21 02:27:36;;;;;;;;;1.00;1.00;;;;;20.07;57.81;101404.44;110357;1265;18179;-33
2023/01/21 02:30:03;;;;;;;;;4.00;4.00;;;;;20.06;57.80;101402.77;110325;1251;19194;-33
2023/01/21 02:32:30;;;;;;;;;2.00;2.00;;;;;20.07;57.84;101400.98;110376;1251;19960;-32
2023/01/21 02:34:58;;;;;;;;;4.00;4.00;;;;;20.07;57.98;101394.80;110370;1251;19625;-33
2023/01/21 02:37:25;;;;;;;;;2.00;2.00;;;;;20.07;57.88;101382.87;110351;1265;18032;-33
2023/01/21 02:39:52;;;;;;;;;2.00;2.00;;;;;20.07;57.69;101377.97;110353;1266;21249;-33
2023/01/21 02:42:20;;;;;;;;;2.00;2.00;;;;;20.07;57.85;101377.94;110379;1251;19620;-34
2023/01/21 02:44:47;;;;;;;;;3.00;2.00;;;;;20.08;57.58;101378.93;110329;1265;19062;-34
2023/01/21 02:47:14;;;;;;;;;1.00;1.00;;;;;20.08;57.80;101385.33;110332;1265;18544;-34
2023/01/21 02:49:42;;;;;;;;;2.50;2.50;;;;;20.06;57.55;101381.09;110347;1260;19546;-33
2023/01/21 02:52:09;;;;;;;;;2.00;2.00;;;;;20.06;57.60;101375.35;110302;1265;19263;-34
2023/01/21 02:54:36;;;;;;;;;2.00;2.00;;;;;20.05;57.60;101368.87;110274;1265;19939;-34
2023/01/21 02:57:04;;;;;;;;;2.00;2.00;;;;;20.06;57.81;101373.64;110311;1265;18254;-34
2023/01/21 02:59:31;;;;;;;;;2.00;2.00;;;;;20.06;57.50;101374.59;110330;1251;19371;-34
2023/01/21 03:01:58;;;;;;;;;2.00;2.00;;;;;20.07;57.52;101380.86;110364;1251;19998;-35
2023/01/21 03:04:25;;;;;;;;;4.00;2.00;;;;;20.06;57.49;101383.27;110371;1251;21592;-34
2023/01/21 03:06:53;;;;;;;;;2.00;2.00;;;;;20.06;57.59;101379.46;110376;1251;19784;-33
2023/01/21 03:09:20;;;;;;;;;4.00;2.00;;;;;20.04;57.51;101377.66;110362;1251;19989;-34
2023/01/21 03:11:48;;;;;;;;;2.00;1.00;;;;;20.05;57.42;101376.69;110218;1251;19631;-34
2023/01/21 03:17:00;;;;;;;;;3.67;3.00;;;;;20.05;57.33;101375.44;110345;1265;18449;-34
2023/01/21 03:19:27;;;;;;;;;2.00;2.00;;;;;20.05;57.38;101384.70;110341;1265;19538;-35
2023/01/21 03:21:55;;;;;;;;;2.00;2.00;;;;;20.04;57.51;101389.54;110402;1265;20505;-34
2023/01/21 03:24:22;;;;;;;;;2.00;2.00;;;;;20.05;57.34;101387.27;110286;1265;18901;-34
2023/01/21 03:26:49;;;;;;;;;4.00;1.00;;;;;20.03;57.33;101377.45;110348;1250;19661;-34
2023/01/21 03:29:17;;;;;;;;;1.00;1.00;;;;;20.04;57.47;101374.67;110381;1250;17876;-33
2023/01/21 03:31:44;;;;;;;;;2.00;2.00;;;;;20.05;57.31;101378.70;110394;1251;19967;-34
2023/01/21 03:34:11;;;;;;;;;2.00;2.00;;;;;20.03;57.30;101369.80;110370;1251;19685;-35
2023/01/21 03:36:39;;;;;;;;;2.00;2.00;;;;;20.03;57.24;101376.52;110362;1251;21503;-34
2023/01/21 03:39:06;;;;;;;;;2.00;2.00;;;;;20.02;57.37;101375.54;110370;1251;20028;-34
2023/01/21 03:41:35;;;;;;;;;2.00;2.00;;;;;20.03;57.35;101373.27;110381;1251;19895;-34
2023/01/21 03:44:03;;;;;;;;;1.67;1.67;;;;;20.03;57.43;101378.34;110410;1250;19149;-34
2023/01/21 03:46:30;;;;;;;;;2.00;1.00;;;;;20.03;57.26;101379.29;110316;1250;20780;-34
2023/01/21 03:48:57;;;;;;;;;3.00;3.00;;;;;20.03;57.07;101379.08;110231;1265;18228;-32
2023/01/21 03:51:25;;;;;;;;;1.00;1.00;;;;;20.02;57.15;101370.98;110242;1265;18019;-32
2023/01/21 03:53:52;;;;;;;;;1.00;1.00;;;;;20.02;57.12;101365.54;110186;1265;19930;-31
2023/01/21 03:56:20;;;;;;;;;1.00;1.00;;;;;20.03;57.13;101355.14;110228;1250;18250;-32
2023/01/21 03:58:47;;;;;;;;;1.00;1.00;;;;;20.02;57.13;101353.34;110254;1265;17960;-32
2023/01/21 04:01:15;;;;;;;;;1.00;1.00;;;;;20.01;57.06;101350.91;110184;1265;19895;-32
2023/01/21 04:03:42;;;;;;;;;3.00;3.00;;;;;20.01;57.09;101346.96;110163;1250;19502;-33
2023/01/21 04:06:10;;;;;;;;;1.00;1.00;;;;;20.01;57.09;101346.59;110201;1251;19322;-34
2023/01/21 04:08:37;;;;;;;;;3.00;3.00;;;;;20.01;57.13;101344.80;110176;1251;19997;-33
2023/01/21 04:11:05;;;;;;;;;1.00;1.00;;;;;20.00;56.95;101350.09;110221;1265;19529;-32
2023/01/21 04:13:32;;;;;;;;;2.00;2.00;;;;;20.00;57.06;101342.86;110372;1257;19242;-33
2023/01/21 04:15:59;;;;;;;;;2.00;2.00;;;;;20.00;56.93;101339.59;110227;1251;21978;-32
2023/01/21 04:18:27;;;;;;;;;2.00;2.00;;;;;19.99;56.91;101338.94;110331;1266;18217;-33
2023/01/21 04:20:54;;;;;;;;;2.00;2.00;;;;;19.98;56.91;101336.37;110369;1265;17889;-34
2023/01/21 04:23:21;;;;;;;;;1.00;1.00;;;;;19.98;57.03;101333.61;110370;1265;18533;-33
2023/01/21 04:25:49;;;;;;;;;1.00;1.00;;;;;20.00;56.94;101330.02;110396;1265;19168;-32
2023/01/21 04:28:16;;;;;;;;;3.00;1.00;;;;;20.00;57.03;101327.09;110366;1251;20551;-34
2023/01/21 04:30:43;;;;;;;;;1.00;1.00;;;;;19.99;56.85;101335.50;110369;1251;21272;-33
2023/01/21 04:33:11;;;;;;;;;1.33;1.33;;;;;20.00;57.01;101326.01;110379;1250;21902;-33
2023/01/21 04:35:38;;;;;;;;;1.00;1.00;;;;;20.00;56.78;101332.16;110352;1265;18728;-32
2023/01/21 04:38:05;;;;;;;;;1.00;1.00;;;;;19.99;56.71;101329.59;110352;1265;20023;-32
2023/01/21 04:40:33;;;;;;;;;1.00;1.00;;;;;19.98;56.67;101330.02;110387;1265;18367;-32
2023/01/21 04:43:00;;;;;;;;;2.00;2.00;;;;;19.99;56.78;101334.23;110378;1266;17883;-33
2023/01/21 04:45:28;;;;;;;;;2.00;2.00;;;;;19.99;56.79;101329.41;110372;1251;20211;-33
2023/01/21 04:47:55;;;;;;;;;2.00;2.00;;;;;19.98;56.83;101313.69;110373;1266;19175;-32
2023/01/21 04:50:22;;;;;;;;;1.00;1.00;;;;;20.00;56.47;101322.92;110350;1250;22047;-33
2023/01/21 04:52:50;;;;;;;;;2.00;2.00;;;;;19.99;56.57;101321.17;110365;1251;19984;-33
2023/01/21 04:55:17;;;;;;;;;1.00;1.00;;;;;19.99;56.47;101319.61;110237;1251;19624;-34
2023/01/21 04:57:45;;;;;;;;;2.00;2.00;;;;;19.98;56.68;101319.64;110337;1266;17754;-33
2023/01/21 05:00:12;;;;;;;;;1.00;1.00;;;;;19.98;56.66;101323.48;110367;1265;18519;-33
2023/01/21 05:02:39;;;;;;;;;1.00;1.00;;;;;19.99;56.40;101326.16;110350;1265;18209;-33
2023/01/21 05:05:07;;;;;;;;;1.00;1.00;;;;;19.99;56.53;101315.40;110305;1264;19434;-32
2023/01/21 05:07:34;;;;;;;;;1.00;1.00;;;;;19.98;56.44;101310.73;110358;1251;20025;-33
2023/01/21 05:10:01;;;;;;;;;2.00;2.00;;;;;19.98;56.42;101312.05;110375;1251;19694;-32
2023/01/21 05:12:29;;;;;;;;;2.00;2.00;;;;;19.97;56.51;101312.67;110343;1250;19390;-32
2023/01/21 05:14:57;;;;;;;;;1.00;1.00;;;;;19.98;56.55;101319.33;110321;1265;22025;-34
2023/01/21 05:17:25;;;;;;;;;2.33;2.33;;;;;19.96;56.25;101315.36;110364;1251;21896;-33
2023/01/21 05:19:52;;;;;;;;;1.00;1.00;;;;;19.95;56.44;101321.23;110294;1251;21787;-33
2023/01/21 05:22:20;;;;;;;;;2.33;2.33;;;;;19.96;56.44;101320.94;110292;1257;20325;-34
2023/01/21 05:24:47;;;;;;;;;1.50;1.00;;;;;19.98;56.33;101324.94;110328;1265;18649;-34
2023/01/21 05:27:15;;;;;;;;;1.00;1.00;;;;;19.97;56.24;101329.06;110336;1251;22011;-34
2023/01/21 05:29:43;;;;;;;;;1.00;1.00;;;;;19.97;56.29;101331.73;110293;1251;18869;-34
2023/01/21 05:32:10;;;;;;;;;2.00;2.00;;;;;19.96;56.32;101336.21;110241;1266;21880;-34
2023/01/21 05:34:38;;;;;;;;;1.00;1.00;;;;;19.95;56.19;101335.80;110160;1251;19557;-34
2023/01/21 05:37:05;;;;;;;;;1.50;1.00;;;;;19.97;56.32;101341.93;110282;1265;19901;-34
2023/01/21 05:39:32;;;;;;;;;1.00;1.00;;;;;19.96;56.29;101337.30;110356;1266;22058;-34
2023/01/21 05:42:00;;;;;;;;;1.00;1.00;;;;;19.95;56.19;101331.38;110334;1251;21563;-34
2023/01/21 05:44:27;;;;;;;;;1.00;1.00;;;;;19.95;56.27;101331.58;110346;1251;21676;-34
2023/01/21 05:46:55;;;;;;;;;1.00;1.00;;;;;19.96;56.24;101339.67;110288;1251;19720;-33
2023/01/21 05:49:22;;;;;;;;;2.00;2.00;;;;;19.96;56.20;101329.65;110218;1249;18127;-34
2023/01/21 05:51:49;;;;;;;;;1.00;1.00;;;;;19.96;55.90;101331.86;110336;1266;22024;-33
2023/01/21 05:54:17;;;;;;;;;1.00;1.00;;;;;19.96;56.18;101332.44;110357;1265;19565;-33
2023/01/21 05:56:44;;;;;;;;;1.00;1.00;;;;;19.95;56.20;101334.17;110369;1265;21953;-33
2023/01/21 05:59:12;;;;;;;;;1.50;1.00;;;;;19.96;56.17;101336.98;110346;1265;19878;-33
2023/01/21 06:01:39;;;;;;;;;1.00;1.00;;;;;19.95;56.02;101339.41;110298;1265;21995;-34
2023/01/21 06:04:07;;;;;;;;;1.00;1.00;;;;;19.94;55.91;101338.72;110391;1260;19159;-32
2023/01/21 06:06:34;;;;;;;;;1.00;1.00;;;;;19.94;55.95;101334.94;110389;1265;21681;-33
2023/01/21 06:09:01;;;;;;;;;3.00;3.00;;;;;19.94;55.85;101343.61;110373;1251;19644;-34
2023/01/21 06:11:29;;;;;;;;;1.00;1.00;;;;;19.93;55.98;101336.70;110323;1251;21558;-33
2023/01/21 06:13:56;;;;;;;;;1.00;1.00;;;;;19.94;55.87;101336.06;110262;1265;21191;-34
2023/01/21 06:16:24;;;;;;;;;1.00;1.00;;;;;19.94;56.16;101331.14;110197;1257;22846;-33
2023/01/21 06:18:51;;;;;;;;;3.00;3.00;;;;;19.95;56.06;101336.55;110252;1265;21385;-32
2023/01/21 06:21:19;;;;;;;;;1.67;1.67;;;;;19.94;55.80;101331.88;110261;1251;19890;-32
2023/01/21 06:23:46;;;;;;;;;1.00;1.00;;;;;19.94;55.95;101332.43;110244;1251;20947;-33
2023/01/21 06:26:14;;;;;;;;;3.00;1.00;;;;;19.93;56.07;101325.08;110232;1265;19326;-33
2023/01/21 06:28:41;;;;;;;;;1.00;1.00;;;;;19.93;55.95;101327.09;110241;1266;21532;-33
2023/01/21 06:31:09;;;;;;;;;1.00;1.00;;;;;19.94;55.97;101331.74;110256;1251;20157;-33
2023/01/21 06:33:36;;;;;;;;;1.00;1.00;;;;;19.92;55.83;101324.45;110270;1265;18553;-32
2023/01/21 06:36:04;;;;;;;;;1.00;1.00;;;;;19.93;55.85;101324.93;110234;1250;19927;-33
2023/01/21 06:38:34;;;;;;;;;1.00;1.00;;;;;19.93;56.06;101314.45;110290;1251;21898;-33
2023/01/21 06:41:02;;;;;;;;;1.00;1.00;;;;;19.92;55.89;101320.08;110240;1265;22055;-33
2023/01/21 06:43:29;;;;;;;;;1.00;1.00;;;;;19.93;55.97;101312.25;110278;1266;21238;-33
2023/01/21 06:45:57;;;;;;;;;2.00;2.00;;;;;19.93;56.05;101309.70;110310;1251;19572;-33
2023/01/21 06:48:24;;;;;;;;;1.00;1.00;;;;;19.92;55.93;101305.64;110295;1265;18729;-34
2023/01/21 06:50:51;;;;;;;;;1.00;1.00;;;;;19.93;55.72;101306.94;110297;1251;21982;-33
2023/01/21 06:53:19;;;;;;;;;1.00;1.00;;;;;19.93;55.96;101299.02;110316;1251;20582;-33
2023/01/21 06:55:47;;;;;;;;;1.00;1.00;;;;;19.92;55.68;101285.30;110297;1266;22006;-34
2023/01/21 06:58:14;;;;;;;;;1.00;1.00;;;;;19.92;55.75;101278.75;110293;1249;21700;-33
2023/01/21 07:00:42;;;;;;;;;3.00;3.00;;;;;19.91;55.85;101285.77;110326;1265;19042;-32
2023/01/21 07:03:09;;;;;;;;;1.00;1.00;;;;;19.91;55.72;101283.45;110293;1265;20360;-33
2023/01/21 07:05:36;;;;;;;;;1.00;1.00;;;;;19.91;55.65;101281.07;110341;1251;22140;-33
2023/01/21 07:08:04;;;;;;;;;2.00;1.00;;;;;19.92;55.60;101276.62;110342;1251;20387;-33
2023/01/21 07:10:32;;;;;;;;;1.00;1.00;;;;;19.92;55.76;101278.05;110365;1250;19351;-34
2023/01/21 07:12:59;;;;;;;;;1.00;1.00;;;;;19.92;55.78;101273.33;110356;1265;19866;-33
2023/01/21 07:15:29;;;;;;;;;2.00;2.00;;;;;19.93;55.84;101258.58;110376;1251;19550;-34
2023/01/21 07:17:57;;;;;;;;;42.00;31.00;;;;;19.98;55.74;101266.57;110352;1250;17843;-32
2023/01/21 07:20:24;;;;;;;;;131.50;99.00;;;;;20.01;55.77;101266.35;110362;1257;18537;-33
2023/01/21 07:22:52;;;;;;;;;111.33;81.67;;;;;20.02;55.65;101271.39;110342;1265;18546;-33
2023/01/21 07:25:19;;;;;;;;;82.00;64.00;;;;;20.08;55.96;101272.66;110307;1259;19872;-33
2023/01/21 07:27:47;;;;;;;;;61.50;45.50;;;;;20.08;56.00;101277.45;110330;1266;18772;-34
2023/01/21 07:30:14;;;;;;;;;41.00;37.50;;;;;20.04;56.25;101270.07;110313;1251;20043;-34
2023/01/21 07:32:41;;;;;;;;;27.50;23.00;;;;;20.05;56.16;101266.55;110283;1265;19243;-34
2023/01/21 07:35:09;;;;;;;;;33.00;28.50;;;;;20.08;56.35;101272.42;110301;1250;20145;-35
2023/01/21 07:37:36;;;;;;;;;20.00;17.00;;;;;20.10;56.63;101262.60;110284;1265;21793;-34
2023/01/21 07:40:03;;;;;;;;;23.00;20.00;;;;;20.12;56.97;101270.91;110254;1251;19760;-34
2023/01/21 07:42:31;;;;;;;;;14.00;13.00;;;;;20.15;56.97;101270.80;110304;1265;18569;-35
2023/01/21 07:45:01;;;;;;;;;13.00;11.50;;;;;20.15;56.82;101267.65;110197;1251;99468;-34
2023/01/21 07:47:29;;;;;;;;;14.00;13.00;;;;;20.15;56.92;101265.73;110304;1251;18190;-34
2023/01/21 07:49:56;;;;;;;;;14.00;13.00;;;;;20.14;57.02;101265.28;110268;1265;21058;-33
2023/01/21 07:52:23;;;;;;;;;9.67;7.67;;;;;20.13;56.84;101258.68;110253;1265;21044;-34
2023/01/21 07:54:51;;;;;;;;;13.00;11.00;;;;;20.12;56.96;101254.56;110302;1251;19244;-34
2023/01/21 07:57:18;;;;;;;;;8.00;8.00;;;;;20.11;56.80;101254.73;110319;1250;19960;-34
2023/01/21 07:59:46;;;;;;;;;10.00;10.00;;;;;20.10;56.73;101246.96;110254;1265;19911;-33
2023/01/21 08:02:13;;;;;;;;;8.00;8.00;;;;;20.11;56.36;101244.35;110204;1260;19501;-34
2023/01/21 08:04:41;;;;;;;;;9.00;8.00;;;;;20.10;56.45;101242.05;110195;1265;19964;-34
2023/01/21 08:07:09;;;;;;;;;8.00;8.00;;;;;20.10;56.50;101229.06;110222;1251;18929;-33
2023/01/21 08:09:37;;;;;;;;;6.33;5.33;;;;;20.08;56.67;101227.92;110205;1251;19335;-34
2023/01/21 08:12:04;;;;;;;;;8.00;7.00;;;;;20.07;56.66;101219.02;110270;1265;18441;-34
2023/01/21 08:14:31;;;;;;;;;8.00;8.00;;;;;20.08;56.54;101214.05;110285;1265;19202;-36
2023/01/21 08:16:59;;;;;;;;;5.00;4.00;;;;;20.11;56.68;101203.90;110288;1265;17908;-34
2023/01/21 08:19:26;;;;;;;;;6.50;5.50;;;;;20.13;56.79;101195.71;110336;1250;20063;-34
2023/01/21 08:21:53;;;;;;;;;7.00;5.00;;;;;20.10;56.75;101188.73;110299;1266;18620;-34
2023/01/21 08:24:21;;;;;;;;;5.00;4.00;;;;;20.11;56.82;101177.04;110247;1265;18007;-33
2023/01/21 08:26:48;;;;;;;;;7.00;5.00;;;;;20.12;56.80;101167.52;110230;1251;19600;-34
2023/01/21 08:29:15;;;;;;;;;7.33;6.67;;;;;20.12;56.70;101160.27;110327;1265;19565;-34
2023/01/21 08:31:43;;;;;;;;;7.00;6.00;;;;;20.11;56.82;101159.44;110353;1250;19649;-33
2023/01/21 08:34:10;;;;;;;;;4.50;4.50;;;;;20.10;56.53;101158.11;110344;1250;18534;-34
2023/01/21 08:36:38;;;;;;;;;7.00;7.00;;;;;20.10;56.47;101158.30;110287;1265;19092;-35
2023/01/21 08:39:06;;;;;;;;;4.00;4.00;;;;;20.08;56.73;101164.08;110297;1265;19110;-33
2023/01/21 08:41:33;;;;;;;;;4.00;4.00;;;;;20.08;56.75;101163.60;110339;1250;19956;-33
2023/01/21 08:44:00;;;;;;;;;4.00;4.00;;;;;20.05;56.63;101166.96;110303;1265;21512;-34
2023/01/21 08:46:28;;;;;;;;;4.00;4.00;;;;;20.06;56.82;101169.83;110319;1251;19473;-34
2023/01/21 08:48:55;;;;;;;;;4.00;4.00;;;;;20.05;56.69;101167.37;110312;1266;20042;-34
2023/01/21 08:51:22;;;;;;;;;4.00;4.00;;;;;20.06;56.48;101169.28;110289;1265;19477;-35
2023/01/21 08:53:50;;;;;;;;;3.50;3.50;;;;;20.04;56.77;101173.38;110289;1251;20952;-33
2023/01/21 08:56:17;;;;;;;;;3.67;3.67;;;;;20.05;56.78;101175.17;110285;1250;19994;-34
2023/01/21 08:58:44;;;;;;;;;2.00;2.00;;;;;20.06;56.68;101177.64;110298;1265;19066;-35
2023/01/21 09:01:12;;;;;;;;;4.00;4.00;;;;;20.06;57.01;101176.56;110275;1251;19281;-34
2023/01/21 09:03:39;;;;;;;;;3.50;3.50;;;;;20.05;57.34;101175.70;110305;1250;18539;-34
2023/01/21 09:06:07;;;;;;;;;4.00;2.00;;;;;20.03;57.10;101173.40;110280;1250;19624;-34
2023/01/21 09:08:35;;;;;;;;;2.00;2.00;;;;;20.02;57.01;101176.94;110271;1260;21570;-33
2023/01/21 09:11:02;;;;;;;;;3.00;3.00;;;;;20.01;57.13;101175.54;110302;1249;18740;-34
2023/01/21 09:13:29;;;;;;;;;2.00;2.00;;;;;20.03;57.10;101179.32;110248;1265;18546;-35
2023/01/21 09:15:57;;;;;;;;;3.00;3.00;;;;;20.04;57.47;101181.91;110238;1251;19330;-34
2023/01/21 09:18:24;;;;;;;;;2.00;2.00;;;;;20.06;57.57;101205.89;110277;1251;18920;-35
2023/01/21 09:20:51;;;;;;;;;3.50;3.50;;;;;20.08;57.77;101228.13;110272;1251;21748;-34
2023/01/21 09:23:25;;;;;;;;;3.50;3.50;;;;;20.08;57.79;101239.08;110298;1249;19236;-35
2023/01/21 09:25:52;;;;;;;;;3.33;3.33;;;;;20.13;57.80;101253.40;110284;1265;18390;-38
2023/01/21 09:28:20;;;;;;;;;2.00;2.00;;;;;20.17;57.86;101259.35;110319;1251;19608;-36
2023/01/21 09:30:47;;;;;;;;;5.00;2.00;;;;;20.16;57.91;101256.52;110331;1250;22015;-39
2023/01/21 09:33:14;;;;;;;;;2.00;2.00;;;;;20.15;58.09;101252.67;110389;1265;18678;-34
2023/01/21 09:35:43;;;;;;;;;4.00;4.00;;;;;20.17;58.40;101243.67;110332;1265;18180;-35
2023/01/21 09:38:11;;;;;;;;;4.00;2.50;;;;;20.14;58.24;101242.39;110323;1251;17888;-35
2023/01/21 09:40:39;;;;;;;;;2.00;2.00;;;;;20.13;58.41;101239.26;110258;1265;19899;-35
2023/01/21 09:43:06;;;;;;;;;4.00;4.00;;;;;20.12;58.57;101240.98;110272;1266;19569;-35
2023/01/21 09:45:33;;;;;;;;;7.00;3.33;;;;;20.09;58.24;101237.83;110304;1251;19371;-34
2023/01/21 09:48:00;;;;;;;;;28.00;24.00;;;;;20.11;58.37;101238.83;110372;1265;18553;-34
2023/01/21 09:50:28;;;;;;;;;92.00;64.50;;;;;20.14;58.03;101240.58;110342;1260;19495;-34
2023/01/21 09:52:55;;;;;;;;;98.00;71.00;;;;;20.17;58.19;101240.62;110365;1260;19577;-35
2023/01/21 09:55:22;;;;;;;;;77.50;59.00;;;;;20.16;58.22;101236.33;110335;1260;20104;-36
2023/01/21 09:57:50;;;;;;;;;72.50;51.50;;;;;20.17;58.24;101239.67;110285;1265;21854;-35
2023/01/21 10:00:17;;;;;;;;;57.00;47.50;;;;;20.20;58.51;101242.52;110288;1265;18105;-35
2023/01/21 10:02:45;;;;;;;;;53.50;41.50;;;;;20.19;58.61;101238.89;110357;1251;19984;-34
2023/01/21 10:05:12;;;;;;;;;42.00;34.00;;;;;20.21;58.87;101237.45;110303;1265;18590;-34
2023/01/21 10:07:39;;;;;;;;;36.50;30.50;;;;;20.21;58.75;101238.96;110309;1251;19553;-34
2023/01/21 10:10:07;;;;;;;;;38.50;33.00;;;;;20.25;59.00;101234.45;110344;1251;18653;-35
2023/01/21 10:12:34;;;;;;;;;30.00;23.00;;;;;20.27;58.96;101231.38;110367;1265;18593;-34
2023/01/21 10:15:01;;;;;;;;;31.00;23.00;;;;;20.26;58.98;101221.13;110315;1265;18122;-34
2023/01/21 10:17:29;;;;;;;;;26.50;20.50;;;;;20.26;58.96;101224.80;110341;1251;20038;-35
2023/01/21 10:19:56;;;;;;;;;26.00;19.00;;;;;20.25;59.00;101223.74;110369;1257;18564;-35
2023/01/21 10:22:23;;;;;;;;;25.00;21.50;;;;;20.24;58.87;101219.18;110356;1265;18226;-35
2023/01/21 10:24:50;;;;;;;;;20.00;14.00;;;;;20.24;58.87;101205.81;110347;1251;20045;-34
2023/01/21 10:27:18;;;;;;;;;15.00;14.50;;;;;20.24;59.08;101206.86;110379;1250;18572;-34
2023/01/21 10:29:45;;;;;;;;;16.00;15.00;;;;;20.23;59.07;101204.95;110339;1265;18104;-34
2023/01/21 10:32:12;;;;;;;;;13.00;12.00;;;;;20.23;58.93;101203.53;110361;1266;19441;-35
2023/01/21 10:34:40;;;;;;;;;13.50;13.50;;;;;20.23;58.86;101205.16;110339;1265;18567;-34
2023/01/21 10:37:07;;;;;;;;;13.00;11.00;;;;;20.23;58.91;101206.45;110337;1265;18080;-34
2023/01/21 10:39:34;;;;;;;;;13.50;10.00;;;;;20.18;58.93;101197.69;110334;1260;18752;-35
2023/01/21 10:42:02;;;;;;;;;8.00;8.00;;;;;20.17;58.68;101196.90;110375;1265;18529;-34
2023/01/21 10:44:29;;;;;;;;;11.00;8.00;;;;;20.16;58.77;101194.81;110343;1259;19225;-34
2023/01/21 10:46:56;;;;;;;;;10.00;8.00;;;;;20.13;58.66;101188.95;110364;1251;20255;-35
2023/01/21 10:49:24;;;;;;;;;12.00;10.00;;;;;20.11;58.83;101193.25;110374;1251;19968;-34
2023/01/21 10:51:51;;;;;;;;;10.00;8.00;;;;;20.08;58.94;101193.46;110337;1265;18094;-35
2023/01/21 10:54:18;;;;;;;;;10.00;8.00;;;;;20.07;58.77;101190.27;110348;1265;18543;-35
2023/01/21 10:56:46;;;;;;;;;7.00;7.00;;;;;20.07;58.83;101189.48;110367;1251;20025;-34
2023/01/21 10:59:13;;;;;;;;;5.00;5.00;;;;;20.05;58.52;101189.86;110330;1265;17882;-35
2023/01/21 11:01:40;;;;;;;;;10.00;7.00;;;;;20.04;58.61;101190.25;110292;1251;19899;-34
2023/01/21 11:04:08;;;;;;;;;7.00;7.00;;;;;20.04;58.59;101189.25;110283;1251;21902;-35
2023/01/21 11:06:35;;;;;;;;;6.00;6.00;;;;;20.02;58.41;101188.67;110213;1251;19366;-35
2023/01/21 11:09:02;;;;;;;;;4.67;4.67;;;;;20.03;58.44;101192.06;110270;1250;19963;-34
2023/01/21 11:11:30;;;;;;;;;7.50;5.00;;;;;20.03;58.10;101191.66;110314;1251;19658;-36
2023/01/21 11:13:57;;;;;;;;;8.00;7.00;;;;;20.03;58.04;101188.43;110350;1266;21443;-35
2023/01/21 11:16:24;;;;;;;;;9.00;7.00;;;;;20.03;58.14;101188.43;110374;1265;18533;-35
2023/01/21 11:18:52;;;;;;;;;7.00;6.00;;;;;20.08;58.24;101189.55;110340;1265;18156;-35
2023/01/21 11:21:19;;;;;;;;;6.00;6.00;;;;;20.10;58.46;101186.23;110331;1265;19241;-35